sensor_id;sensor_type;location;lat;lon;timestamp;pressure;altitude;pressure_sealevel;temperature;humidity
19508;BME280;40157;42.566;27.526;2023-03-13T00:00:55;101394.97;;;6.82;70.04
19508;BME280;40157;42.566;27.526;2023-03-13T00:02:56;101321.28;;;6.23;69.98
19508;BME280;40157;42.566;27.526;2023-03-13T00:04:56;101426.59;;;6.90;70.29
19508;BME280;40157;42.566;27.526;2023-03-13T00:06:57;101407.00;;;6.78;70.30
19508;BME280;40157;42.566;27.526;2023-03-13T00:08:58;101367.59;;;6.51;70.71
19508;BME280;40157;42.566;27.526;2023-03-13T00:11:09;101413.97;;;6.79;70.60
19508;BME280;40157;42.566;27.526;2023-03-13T00:13:10;101381.66;;;6.55;70.52
19508;BME280;40157;42.566;27.526;2023-03-13T00:15:11;101415.47;;;6.74;70.82
19508;BME280;40157;42.566;27.526;2023-03-13T00:17:11;101409.25;;;6.71;70.36
19508;BME280;40157;42.566;27.526;2023-03-13T00:19:13;101432.22;;;6.79;70.50
19508;BME280;40157;42.566;27.526;2023-03-13T00:21:14;101375.25;;;6.46;70.43
19508;BME280;40157;42.566;27.526;2023-03-13T00:23:15;101443.59;;;6.81;70.53
19508;BME280;40157;42.566;27.526;2023-03-13T00:25:15;101428.59;;;6.76;70.34
19508;BME280;40157;42.566;27.526;2023-03-13T00:27:16;101413.44;;;6.67;70.53
19508;BME280;40157;42.566;27.526;2023-03-13T00:29:16;101447.16;;;6.83;70.56
19508;BME280;40157;42.566;27.526;2023-03-13T00:31:22;101407.44;;;6.68;70.46
19508;BME280;40157;42.566;27.526;2023-03-13T00:33:23;101422.34;;;6.72;70.48
19508;BME280;40157;42.566;27.526;2023-03-13T00:35:23;101422.34;;;6.72;70.42
19508;BME280;40157;42.566;27.526;2023-03-13T00:37:24;101402.97;;;6.46;70.48
19508;BME280;40157;42.566;27.526;2023-03-13T00:39:24;101425.59;;;6.66;70.22
19508;BME280;40157;42.566;27.526;2023-03-13T00:41:27;101412.16;;;6.57;70.18
19508;BME280;40157;42.566;27.526;2023-03-13T00:43:28;101390.03;;;6.47;69.98
19508;BME280;40157;42.566;27.526;2023-03-13T00:45:29;101434.16;;;6.64;69.94
19508;BME280;40157;42.566;27.526;2023-03-13T00:47:29;101434.00;;;6.61;70.05
19508;BME280;40157;42.566;27.526;2023-03-13T00:49:30;101374.72;;;6.15;69.64
19508;BME280;40157;42.566;27.526;2023-03-13T00:51:31;101417.88;;;6.48;69.82
19508;BME280;40157;42.566;27.526;2023-03-13T00:53:31;101401.22;;;6.25;70.03
19508;BME280;40157;42.566;27.526;2023-03-13T00:55:32;101404.59;;;6.23;70.41
19508;BME280;40157;42.566;27.526;2023-03-13T00:57:32;101357.97;;;5.90;70.44
19508;BME280;40157;42.566;27.526;2023-03-13T00:59:36;101414.09;;;6.22;70.54
19508;BME280;40157;42.566;27.526;2023-03-13T01:01:37;101414.03;;;6.21;70.66
19508;BME280;40157;42.566;27.526;2023-03-13T01:03:38;101427.47;;;6.30;70.67
19508;BME280;40157;42.566;27.526;2023-03-13T01:05:39;101327.13;;;5.60;70.80
19508;BME280;40157;42.566;27.526;2023-03-13T01:07:40;101356.34;;;5.74;70.47
19508;BME280;40157;42.566;27.526;2023-03-13T01:09:40;101412.63;;;6.09;70.77
19508;BME280;40157;42.566;27.526;2023-03-13T01:11:42;101425.72;;;6.11;70.89
19508;BME280;40157;42.566;27.526;2023-03-13T01:13:43;101431.28;;;6.19;71.87
19508;BME280;40157;42.566;27.526;2023-03-13T01:15:43;101398.53;;;6.04;71.77
19508;BME280;40157;42.566;27.526;2023-03-13T01:17:44;101427.72;;;6.17;71.95
19508;BME280;40157;42.566;27.526;2023-03-13T01:19:45;101436.50;;;6.19;71.76
19508;BME280;40157;42.566;27.526;2023-03-13T01:21:45;101414.28;;;6.07;71.53
19508;BME280;40157;42.566;27.526;2023-03-13T01:23:47;101432.09;;;6.18;71.22
19508;BME280;40157;42.566;27.526;2023-03-13T01:25:48;101418.75;;;6.10;71.21
19508;BME280;40157;42.566;27.526;2023-03-13T01:27:49;101416.09;;;6.08;71.30
19508;BME280;40157;42.566;27.526;2023-03-13T01:29:49;101364.94;;;5.71;71.36
19508;BME280;40157;42.566;27.526;2023-03-13T01:31:50;101409.56;;;5.99;71.25
19508;BME280;40157;42.566;27.526;2023-03-13T01:33:53;101427.38;;;6.09;71.60
19508;BME280;40157;42.566;27.526;2023-03-13T01:36:00;101437.72;;;6.07;71.11
19508;BME280;40157;42.566;27.526;2023-03-13T01:38:01;101443.75;;;6.06;70.93
19508;BME280;40157;42.566;27.526;2023-03-13T01:40:01;101397.66;;;5.86;70.69
19508;BME280;40157;42.566;27.526;2023-03-13T01:42:03;101328.41;;;5.32;70.61
19508;BME280;40157;42.566;27.526;2023-03-13T01:44:04;101437.94;;;5.94;71.11
19508;BME280;40157;42.566;27.526;2023-03-13T01:48:08;101411.13;;;5.77;71.77
19508;BME280;40157;42.566;27.526;2023-03-13T01:50:09;101465.94;;;5.98;71.88
19508;BME280;40157;42.566;27.526;2023-03-13T01:58:54;101466.75;;;5.97;72.06
19508;BME280;40157;42.566;27.526;2023-03-13T02:00:57;101467.69;;;5.99;72.09
19508;BME280;40157;42.566;27.526;2023-03-13T02:03:05;101398.91;;;5.56;72.03
19508;BME280;40157;42.566;27.526;2023-03-13T02:05:08;101445.09;;;5.80;71.93
19508;BME280;40157;42.566;27.526;2023-03-13T02:07:11;101454.97;;;5.87;71.71
19508;BME280;40157;42.566;27.526;2023-03-13T02:09:18;101423.78;;;5.69;71.79
19508;BME280;40157;42.566;27.526;2023-03-13T02:13:28;101480.34;;;5.91;71.84
19508;BME280;40157;42.566;27.526;2023-03-13T02:15:29;101491.63;;;5.92;71.63
19508;BME280;40157;42.566;27.526;2023-03-13T02:17:31;101491.78;;;5.95;71.25
19508;BME280;40157;42.566;27.526;2023-03-13T02:19:43;101494.31;;;5.93;71.15
19508;BME280;40157;42.566;27.526;2023-03-13T02:22:01;101502.03;;;5.92;71.20
19508;BME280;40157;42.566;27.526;2023-03-13T02:24:12;101500.25;;;5.91;71.13
19508;BME280;40157;42.566;27.526;2023-03-13T02:26:13;101490.75;;;5.73;71.17
19508;BME280;40157;42.566;27.526;2023-03-13T02:28:19;101508.50;;;5.82;71.02
19508;BME280;40157;42.566;27.526;2023-03-13T02:30:21;101463.69;;;5.52;70.95
19508;BME280;40157;42.566;27.526;2023-03-13T02:32:22;101523.31;;;5.83;71.47
19508;BME280;40157;42.566;27.526;2023-03-13T02:34:31;101428.78;;;5.29;71.34
19508;BME280;40157;42.566;27.526;2023-03-13T02:36:33;101452.75;;;5.41;71.44
19508;BME280;40157;42.566;27.526;2023-03-13T02:38:38;101515.28;;;5.79;71.70
19508;BME280;40157;42.566;27.526;2023-03-13T02:40:43;101484.94;;;5.61;71.57
19508;BME280;40157;42.566;27.526;2023-03-13T02:42:44;101428.69;;;5.27;71.53
19508;BME280;40157;42.566;27.526;2023-03-13T02:44:46;101531.03;;;5.82;71.60
19508;BME280;40157;42.566;27.526;2023-03-13T02:46:49;101516.47;;;5.67;71.72
19508;BME280;40157;42.566;27.526;2023-03-13T02:48:53;101480.88;;;5.48;71.66
19508;BME280;40157;42.566;27.526;2023-03-13T02:50:55;101538.00;;;5.83;71.74
19508;BME280;40157;42.566;27.526;2023-03-13T02:53:01;101523.63;;;5.71;71.71
19508;BME280;40157;42.566;27.526;2023-03-13T02:55:06;101382.31;;;4.82;71.90
19508;BME280;40157;42.566;27.526;2023-03-13T02:57:08;101541.31;;;5.79;71.64
19508;BME280;40157;42.566;27.526;2023-03-13T02:59:09;101482.28;;;5.42;71.59
19508;BME280;40157;42.566;27.526;2023-03-13T03:01:09;101551.56;;;5.75;71.55
19508;BME280;40157;42.566;27.526;2023-03-13T03:03:10;101549.91;;;5.78;71.39
19508;BME280;40157;42.566;27.526;2023-03-13T03:05:11;101512.97;;;5.49;71.42
19508;BME280;40157;42.566;27.526;2023-03-13T03:07:12;101520.91;;;5.52;71.05
19508;BME280;40157;42.566;27.526;2023-03-13T03:09:14;101561.88;;;5.74;70.58
19508;BME280;40157;42.566;27.526;2023-03-13T03:11:14;101556.09;;;5.62;70.26
19508;BME280;40157;42.566;27.526;2023-03-13T03:13:15;101450.88;;;5.03;70.26
19508;BME280;40157;42.566;27.526;2023-03-13T03:15:15;101499.78;;;5.28;70.55
19508;BME280;40157;42.566;27.526;2023-03-13T03:17:16;101543.22;;;5.47;70.18
19508;BME280;40157;42.566;27.526;2023-03-13T03:19:16;101574.78;;;5.54;70.32
19508;BME280;40157;42.566;27.526;2023-03-13T03:21:17;101523.41;;;5.32;70.26
19508;BME280;40157;42.566;27.526;2023-03-13T03:23:17;101512.97;;;5.14;70.47
19508;BME280;40157;42.566;27.526;2023-03-13T03:25:18;101544.88;;;5.28;70.51
19508;BME280;40157;42.566;27.526;2023-03-13T03:27:18;101572.63;;;5.46;70.19
19508;BME280;40157;42.566;27.526;2023-03-13T03:29:19;101493.03;;;4.97;70.26
19508;BME280;40157;42.566;27.526;2023-03-13T03:31:19;101575.72;;;5.38;69.87
19508;BME280;40157;42.566;27.526;2023-03-13T03:33:21;101581.56;;;5.34;70.09
19508;BME280;40157;42.566;27.526;2023-03-13T03:35:22;101568.84;;;5.23;70.16
19508;BME280;40157;42.566;27.526;2023-03-13T03:37:22;101522.59;;;4.99;69.94
19508;BME280;40157;42.566;27.526;2023-03-13T03:39:23;101556.59;;;5.04;69.99
19508;BME280;40157;42.566;27.526;2023-03-13T03:41:23;101586.06;;;5.21;70.16
19508;BME280;40157;42.566;27.526;2023-03-13T03:43:24;101549.53;;;5.01;70.10
19508;BME280;40157;42.566;27.526;2023-03-13T03:45:24;101507.25;;;4.71;70.36
19508;BME280;40157;42.566;27.526;2023-03-13T03:47:25;101576.59;;;5.05;70.09
19508;BME280;40157;42.566;27.526;2023-03-13T03:49:25;101549.94;;;4.92;70.48
19508;BME280;40157;42.566;27.526;2023-03-13T03:51:26;101488.13;;;4.52;70.54
19508;BME280;40157;42.566;27.526;2023-03-13T03:53:26;101587.47;;;4.97;71.11
19508;BME280;40157;42.566;27.526;2023-03-13T03:55:28;101584.53;;;5.08;71.24
19508;BME280;40157;42.566;27.526;2023-03-13T03:57:28;101587.00;;;5.05;71.10
19508;BME280;40157;42.566;27.526;2023-03-13T03:59:29;101557.41;;;4.86;71.10
19508;BME280;40157;42.566;27.526;2023-03-13T04:01:29;101564.56;;;4.90;71.14
19508;BME280;40157;42.566;27.526;2023-03-13T04:03:30;101567.88;;;4.88;71.22
19508;BME280;40157;42.566;27.526;2023-03-13T04:05:30;101590.16;;;4.99;70.90
19508;BME280;40157;42.566;27.526;2023-03-13T04:07:31;101586.59;;;4.97;71.01
19508;BME280;40157;42.566;27.526;2023-03-13T04:09:31;101583.72;;;4.92;71.35
19508;BME280;40157;42.566;27.526;2023-03-13T04:11:32;101589.75;;;4.91;71.45
19508;BME280;40157;42.566;27.526;2023-03-13T04:13:32;101562.06;;;4.75;71.39
19508;BME280;40157;42.566;27.526;2023-03-13T04:15:33;101573.41;;;4.77;71.56
19508;BME280;40157;42.566;27.526;2023-03-13T04:17:33;101588.28;;;4.80;72.02
19508;BME280;40157;42.566;27.526;2023-03-13T04:19:34;101562.69;;;4.55;72.02
19508;BME280;40157;42.566;27.526;2023-03-13T04:21:34;101568.63;;;4.69;72.24
19508;BME280;40157;42.566;27.526;2023-03-13T04:23:35;101509.09;;;4.24;72.14
19508;BME280;40157;42.566;27.526;2023-03-13T04:25:35;101588.28;;;4.80;71.93
19508;BME280;40157;42.566;27.526;2023-03-13T04:27:36;101493.53;;;4.24;72.04
19508;BME280;40157;42.566;27.526;2023-03-13T04:29:37;101520.97;;;4.35;72.01
19508;BME280;40157;42.566;27.526;2023-03-13T04:31:37;101587.78;;;4.71;71.69
19508;BME280;40157;42.566;27.526;2023-03-13T04:33:38;101571.06;;;4.66;71.88
19508;BME280;40157;42.566;27.526;2023-03-13T04:35:38;101554.91;;;4.55;71.62
19508;BME280;40157;42.566;27.526;2023-03-13T04:37:39;101581.53;;;4.67;72.12
19508;BME280;40157;42.566;27.526;2023-03-13T04:39:39;101619.63;;;4.83;72.90
19508;BME280;40157;42.566;27.526;2023-03-13T04:41:40;101597.75;;;4.79;72.45
19508;BME280;40157;42.566;27.526;2023-03-13T04:43:40;101595.41;;;4.68;72.16
19508;BME280;40157;42.566;27.526;2023-03-13T04:45:41;101583.00;;;4.62;72.21
19508;BME280;40157;42.566;27.526;2023-03-13T04:47:41;101509.41;;;4.14;72.12
19508;BME280;40157;42.566;27.526;2023-03-13T04:49:42;101643.09;;;4.85;71.76
19508;BME280;40157;42.566;27.526;2023-03-13T04:51:43;101621.22;;;4.81;71.76
19508;BME280;40157;42.566;27.526;2023-03-13T04:53:43;101631.56;;;4.96;73.50
19508;BME280;40157;42.566;27.526;2023-03-13T04:55:44;101623.75;;;4.96;73.73
19508;BME280;40157;42.566;27.526;2023-03-13T04:57:44;101610.59;;;4.93;73.64
19508;BME280;40157;42.566;27.526;2023-03-13T04:59:45;101622.53;;;5.06;73.45
19508;BME280;40157;42.566;27.526;2023-03-13T05:01:45;101624.91;;;5.17;73.55
19508;BME280;40157;42.566;27.526;2023-03-13T05:03:46;101637.50;;;5.26;73.23
19508;BME280;40157;42.566;27.526;2023-03-13T05:05:46;101632.06;;;5.38;72.60
19508;BME280;40157;42.566;27.526;2023-03-13T05:07:46;101644.13;;;5.54;72.11
19508;BME280;40157;42.566;27.526;2023-03-13T05:09:47;101646.22;;;5.61;71.98
19508;BME280;40157;42.566;27.526;2023-03-13T05:11:47;101639.84;;;5.72;71.82
19508;BME280;40157;42.566;27.526;2023-03-13T05:13:49;101648.06;;;5.80;71.46
19508;BME280;40157;42.566;27.526;2023-03-13T05:15:50;101622.75;;;5.78;71.15
19508;BME280;40157;42.566;27.526;2023-03-13T05:17:50;101639.16;;;5.93;70.97
19508;BME280;40157;42.566;27.526;2023-03-13T05:19:50;101647.44;;;6.02;70.71
19508;BME280;40157;42.566;27.526;2023-03-13T05:21:51;101659.44;;;6.17;70.59
19508;BME280;40157;42.566;27.526;2023-03-13T05:23:52;101659.75;;;6.23;70.09
19508;BME280;40157;42.566;27.526;2023-03-13T05:25:52;101639.94;;;6.08;69.82
19508;BME280;40157;42.566;27.526;2023-03-13T05:27:52;101663.47;;;6.28;69.69
19508;BME280;40157;42.566;27.526;2023-03-13T05:29:53;101679.09;;;6.28;69.76
19508;BME280;40157;42.566;27.526;2023-03-13T05:31:53;101650.94;;;6.21;69.76
19508;BME280;40157;42.566;27.526;2023-03-13T05:33:55;101681.97;;;6.34;69.94
19508;BME280;40157;42.566;27.526;2023-03-13T05:35:55;101682.81;;;6.33;70.10
19508;BME280;40157;42.566;27.526;2023-03-13T05:37:55;101681.19;;;6.35;70.14
19508;BME280;40157;42.566;27.526;2023-03-13T05:39:56;101689.38;;;6.43;70.36
19508;BME280;40157;42.566;27.526;2023-03-13T05:41:56;101676.94;;;6.37;70.65
19508;BME280;40157;42.566;27.526;2023-03-13T05:43:57;101595.25;;;5.83;70.84
19508;BME280;40157;42.566;27.526;2023-03-13T05:45:57;101676.41;;;6.44;71.29
19508;BME280;40157;42.566;27.526;2023-03-13T05:47:58;101696.81;;;6.53;71.53
19508;BME280;40157;42.566;27.526;2023-03-13T05:49:58;101695.66;;;6.66;72.13
19508;BME280;40157;42.566;27.526;2023-03-13T05:51:59;101681.25;;;6.55;72.76
19508;BME280;40157;42.566;27.526;2023-03-13T05:53:59;101704.25;;;6.81;73.56
19508;BME280;40157;42.566;27.526;2023-03-13T05:56:00;101687.28;;;6.72;73.86
19508;BME280;40157;42.566;27.526;2023-03-13T05:58:00;101643.94;;;6.56;74.07
19508;BME280;40157;42.566;27.526;2023-03-13T06:00:01;101632.78;;;6.58;74.28
19508;BME280;40157;42.566;27.526;2023-03-13T06:02:02;101651.38;;;6.66;74.67
19508;BME280;40157;42.566;27.526;2023-03-13T06:04:02;101613.53;;;6.55;74.86
19508;BME280;40157;42.566;27.526;2023-03-13T06:06:03;101606.81;;;6.60;74.86
19508;BME280;40157;42.566;27.526;2023-03-13T06:08:04;101705.66;;;7.12;74.96
19508;BME280;40157;42.566;27.526;2023-03-13T06:10:05;101692.38;;;7.08;75.22
19508;BME280;40157;42.566;27.526;2023-03-13T06:12:07;101714.16;;;7.28;75.32
19508;BME280;40157;42.566;27.526;2023-03-13T06:14:08;101693.63;;;7.16;75.96
19508;BME280;40157;42.566;27.526;2023-03-13T06:16:09;101631.41;;;6.84;75.88
19508;BME280;40157;42.566;27.526;2023-03-13T06:18:10;101654.72;;;7.01;75.37
19508;BME280;40157;42.566;27.526;2023-03-13T06:20:11;101726.13;;;7.42;75.01
19508;BME280;40157;42.566;27.526;2023-03-13T06:22:12;101678.22;;;7.20;75.37
19508;BME280;40157;42.566;27.526;2023-03-13T06:24:13;101730.13;;;7.53;75.43
19508;BME280;40157;42.566;27.526;2023-03-13T06:26:13;101694.69;;;7.39;75.94
19508;BME280;40157;42.566;27.526;2023-03-13T06:28:14;101654.75;;;7.20;75.83
19508;BME280;40157;42.566;27.526;2023-03-13T06:30:15;101735.88;;;7.66;76.04
19508;BME280;40157;42.566;27.526;2023-03-13T06:32:15;101736.28;;;7.75;75.99
19508;BME280;40157;42.566;27.526;2023-03-13T06:34:16;101741.81;;;7.81;76.11
19508;BME280;40157;42.566;27.526;2023-03-13T06:36:16;101737.38;;;7.80;74.86
19508;BME280;40157;42.566;27.526;2023-03-13T06:38:17;101741.03;;;7.84;74.50
19508;BME280;40157;42.566;27.526;2023-03-13T06:40:17;101695.44;;;7.56;75.07
19508;BME280;40157;42.566;27.526;2023-03-13T06:42:18;101738.75;;;7.91;74.81
19508;BME280;40157;42.566;27.526;2023-03-13T06:44:18;101660.78;;;7.39;73.56
19508;BME280;40157;42.566;27.526;2023-03-13T06:46:21;101718.97;;;7.77;74.03
19508;BME280;40157;42.566;27.526;2023-03-13T06:48:22;101719.25;;;7.83;74.43
19508;BME280;40157;42.566;27.526;2023-03-13T06:50:23;101729.34;;;7.95;74.08
19508;BME280;40157;42.566;27.526;2023-03-13T06:52:23;101745.44;;;8.06;73.63
19508;BME280;40157;42.566;27.526;2023-03-13T06:54:25;101736.47;;;7.99;72.79
19508;BME280;40157;42.566;27.526;2023-03-13T06:56:26;101756.31;;;8.15;71.95
19508;BME280;40157;42.566;27.526;2023-03-13T06:58:27;101753.03;;;8.21;71.48
19508;BME280;40157;42.566;27.526;2023-03-13T07:00:27;101747.28;;;8.28;70.91
19508;BME280;40157;42.566;27.526;2023-03-13T07:02:28;101713.28;;;8.07;70.71
19508;BME280;40157;42.566;27.526;2023-03-13T07:04:28;101750.19;;;8.36;71.04
19508;BME280;40157;42.566;27.526;2023-03-13T07:06:29;101757.63;;;8.46;71.04
19508;BME280;40157;42.566;27.526;2023-03-13T07:08:29;101741.47;;;8.35;68.68
19508;BME280;40157;42.566;27.526;2023-03-13T07:10:30;101758.13;;;8.58;68.87
19508;BME280;40157;42.566;27.526;2023-03-13T07:12:31;101772.34;;;8.65;67.22
19508;BME280;40157;42.566;27.526;2023-03-13T07:14:31;101752.97;;;8.60;64.32
19508;BME280;40157;42.566;27.526;2023-03-13T07:16:32;101742.13;;;8.50;64.51
19508;BME280;40157;42.566;27.526;2023-03-13T07:18:33;101765.06;;;8.79;64.71
19508;BME280;40157;42.566;27.526;2023-03-13T07:20:34;101766.97;;;8.83;65.28
19508;BME280;40157;42.566;27.526;2023-03-13T07:22:35;101771.56;;;8.88;65.96
19508;BME280;40157;42.566;27.526;2023-03-13T07:24:35;101761.88;;;8.86;65.72
19508;BME280;40157;42.566;27.526;2023-03-13T07:26:36;101681.56;;;8.40;61.85
19508;BME280;40157;42.566;27.526;2023-03-13T07:28:36;101756.66;;;8.86;62.36
19508;BME280;40157;42.566;27.526;2023-03-13T07:30:37;101764.03;;;8.96;63.75
19508;BME280;40157;42.566;27.526;2023-03-13T07:32:37;101756.00;;;8.92;59.63
19508;BME280;40157;42.566;27.526;2023-03-13T07:34:38;101763.28;;;9.00;59.34
19508;BME280;40157;42.566;27.526;2023-03-13T07:36:38;101739.28;;;8.88;60.28
19508;BME280;40157;42.566;27.526;2023-03-13T07:38:40;101781.63;;;9.23;60.37
19508;BME280;40157;42.566;27.526;2023-03-13T07:40:52;101773.91;;;9.26;59.08
19508;BME280;40157;42.566;27.526;2023-03-13T07:42:53;101772.28;;;9.30;59.36
19508;BME280;40157;42.566;27.526;2023-03-13T07:44:54;101777.69;;;9.34;57.03
19508;BME280;40157;42.566;27.526;2023-03-13T07:46:54;101765.19;;;9.27;56.68
19508;BME280;40157;42.566;27.526;2023-03-13T07:48:55;101744.94;;;9.21;59.24
19508;BME280;40157;42.566;27.526;2023-03-13T07:50:56;101733.66;;;9.24;59.35
19508;BME280;40157;42.566;27.526;2023-03-13T07:52:57;101685.56;;;8.96;57.80
19508;BME280;40157;42.566;27.526;2023-03-13T07:54:57;101671.50;;;8.94;58.36
19508;BME280;40157;42.566;27.526;2023-03-13T07:56:57;101620.78;;;8.66;56.93
19508;BME280;40157;42.566;27.526;2023-03-13T07:58:58;101697.72;;;9.18;55.49
19508;BME280;40157;42.566;27.526;2023-03-13T08:00:59;101776.91;;;9.59;53.34
19508;BME280;40157;42.566;27.526;2023-03-13T08:02:59;101771.03;;;9.67;53.22
19508;BME280;40157;42.566;27.526;2023-03-13T08:05:00;101716.91;;;9.41;52.54
19508;BME280;40157;42.566;27.526;2023-03-13T08:07:00;101748.41;;;9.69;53.12
19508;BME280;40157;42.566;27.526;2023-03-13T08:09:01;101763.03;;;9.86;52.12
19508;BME280;40157;42.566;27.526;2023-03-13T08:11:09;101776.59;;;10.00;50.70
19508;BME280;40157;42.566;27.526;2023-03-13T08:13:10;101782.19;;;10.09;49.52
19508;BME280;40157;42.566;27.526;2023-03-13T08:15:10;101748.53;;;9.96;47.07
19508;BME280;40157;42.566;27.526;2023-03-13T08:17:11;101765.72;;;10.13;48.30
19508;BME280;40157;42.566;27.526;2023-03-13T08:19:11;101774.25;;;10.32;49.49
19508;BME280;40157;42.566;27.526;2023-03-13T08:21:14;101771.91;;;10.40;48.75
19508;BME280;40157;42.566;27.526;2023-03-13T08:23:15;101775.63;;;10.46;48.59
19508;BME280;40157;42.566;27.526;2023-03-13T08:25:16;101788.84;;;10.49;47.86
19508;BME280;40157;42.566;27.526;2023-03-13T08:27:16;101736.06;;;10.40;48.92
19508;BME280;40157;42.566;27.526;2023-03-13T08:29:17;101692.41;;;10.15;49.00
19508;BME280;40157;42.566;27.526;2023-03-13T08:31:38;101740.66;;;10.47;49.38
19508;BME280;40157;42.566;27.526;2023-03-13T08:33:39;101781.31;;;10.60;50.94
19508;BME280;40157;42.566;27.526;2023-03-13T08:35:41;101753.59;;;10.41;47.67
19508;BME280;40157;42.566;27.526;2023-03-13T08:37:41;101698.09;;;10.29;48.30
19508;BME280;40157;42.566;27.526;2023-03-13T08:39:42;101766.56;;;10.64;48.33
19508;BME280;40157;42.566;27.526;2023-03-13T08:41:44;101763.22;;;10.68;48.13
19508;BME280;40157;42.566;27.526;2023-03-13T08:43:47;101744.91;;;10.69;46.61
19508;BME280;40157;42.566;27.526;2023-03-13T08:45:53;101755.50;;;10.72;45.89
19508;BME280;40157;42.566;27.526;2023-03-13T08:47:54;101781.31;;;10.87;45.04
19508;BME280;40157;42.566;27.526;2023-03-13T08:49:54;101753.88;;;10.76;44.62
19508;BME280;40157;42.566;27.526;2023-03-13T08:51:55;101781.41;;;10.90;43.79
19508;BME280;40157;42.566;27.526;2023-03-13T08:53:57;101776.38;;;10.97;45.06
19508;BME280;40157;42.566;27.526;2023-03-13T08:55:57;101755.78;;;10.82;44.23
19508;BME280;40157;42.566;27.526;2023-03-13T08:57:58;101707.72;;;10.55;41.50
19508;BME280;40157;42.566;27.526;2023-03-13T08:59:59;101757.75;;;10.89;42.09
19508;BME280;40157;42.566;27.526;2023-03-13T09:02:01;101788.78;;;11.02;42.78
19508;BME280;40157;42.566;27.526;2023-03-13T09:04:04;101773.94;;;11.03;42.44
19508;BME280;40157;42.566;27.526;2023-03-13T09:06:05;101795.34;;;11.17;43.28
19508;BME280;40157;42.566;27.526;2023-03-13T09:08:06;101783.06;;;11.16;43.72
19508;BME280;40157;42.566;27.526;2023-03-13T09:10:06;101790.47;;;11.29;43.88
19508;BME280;40157;42.566;27.526;2023-03-13T09:12:07;101765.88;;;11.25;43.64
19508;BME280;40157;42.566;27.526;2023-03-13T09:14:09;101755.25;;;11.21;43.79
19508;BME280;40157;42.566;27.526;2023-03-13T09:16:12;101785.47;;;11.37;43.57
19508;BME280;40157;42.566;27.526;2023-03-13T09:18:12;101736.63;;;11.13;43.71
19508;BME280;40157;42.566;27.526;2023-03-13T09:20:14;101760.44;;;11.19;44.27
19508;BME280;40157;42.566;27.526;2023-03-13T09:22:14;101774.13;;;11.38;44.95
19508;BME280;40157;42.566;27.526;2023-03-13T09:24:15;101742.84;;;11.17;45.73
19508;BME280;40157;42.566;27.526;2023-03-13T09:26:16;101756.38;;;11.30;46.62
19508;BME280;40157;42.566;27.526;2023-03-13T09:28:17;101758.38;;;11.38;45.81
19508;BME280;40157;42.566;27.526;2023-03-13T09:30:18;101743.16;;;11.26;45.64
19508;BME280;40157;42.566;27.526;2023-03-13T09:32:18;101693.31;;;10.99;46.08
19508;BME280;40157;42.566;27.526;2023-03-13T09:34:19;101761.97;;;11.41;46.18
19508;BME280;40157;42.566;27.526;2023-03-13T09:36:22;101785.25;;;11.59;47.97
19508;BME280;40157;42.566;27.526;2023-03-13T09:38:23;101758.72;;;11.50;47.88
19508;BME280;40157;42.566;27.526;2023-03-13T09:40:25;101779.38;;;11.68;47.48
19508;BME280;40157;42.566;27.526;2023-03-13T09:42:40;101783.81;;;11.71;46.85
19508;BME280;40157;42.566;27.526;2023-03-13T09:44:57;101790.22;;;11.80;47.76
19508;BME280;40157;42.566;27.526;2023-03-13T09:47:06;101792.28;;;11.91;47.35
19508;BME280;40157;42.566;27.526;2023-03-13T09:49:44;101778.25;;;11.90;49.00
19508;BME280;40157;42.566;27.526;2023-03-13T09:51:49;101804.22;;;12.10;47.76
19508;BME280;40157;42.566;27.526;2023-03-13T09:54:06;101788.69;;;12.19;47.73
19508;BME280;40157;42.566;27.526;2023-03-13T09:56:16;101801.25;;;12.29;47.55
19508;BME280;40157;42.566;27.526;2023-03-13T09:58:23;101793.38;;;12.29;45.89
19508;BME280;40157;42.566;27.526;2023-03-13T10:00:29;101761.34;;;12.12;46.17
19508;BME280;40157;42.566;27.526;2023-03-13T10:02:33;101798.81;;;12.37;46.20
19508;BME280;40157;42.566;27.526;2023-03-13T10:04:40;101749.94;;;12.12;45.90
19508;BME280;40157;42.566;27.526;2023-03-13T10:06:43;101758.47;;;12.36;47.19
19508;BME280;40157;42.566;27.526;2023-03-13T10:08:45;101768.44;;;12.50;45.74
19508;BME280;40157;42.566;27.526;2023-03-13T10:10:50;101794.28;;;12.66;45.87
19508;BME280;40157;42.566;27.526;2023-03-13T10:13:02;101740.19;;;12.41;45.48
19508;BME280;40157;42.566;27.526;2023-03-13T10:17:48;101783.84;;;12.69;44.66
19508;BME280;40157;42.566;27.526;2023-03-13T10:19:57;101759.25;;;12.69;44.00
19508;BME280;40157;42.566;27.526;2023-03-13T10:22:01;101765.63;;;12.78;45.01
19508;BME280;40157;42.566;27.526;2023-03-13T10:26:34;101770.22;;;12.86;46.52
19508;BME280;40157;42.566;27.526;2023-03-13T10:28:35;101772.81;;;12.84;45.13
19508;BME280;40157;42.566;27.526;2023-03-13T10:30:45;101771.34;;;12.97;44.95
19508;BME280;40157;42.566;27.526;2023-03-13T10:32:46;101738.78;;;12.93;44.46
19508;BME280;40157;42.566;27.526;2023-03-13T10:36:56;101740.13;;;13.12;45.69
19508;BME280;40157;42.566;27.526;2023-03-13T10:38:57;101713.72;;;13.09;46.01
19508;BME280;40157;42.566;27.526;2023-03-13T10:41:00;101753.19;;;13.47;46.18
19508;BME280;40157;42.566;27.526;2023-03-13T10:43:16;101740.91;;;13.49;44.35
19508;BME280;40157;42.566;27.526;2023-03-13T10:45:20;101726.84;;;13.47;44.16
19508;BME280;40157;42.566;27.526;2023-03-13T10:47:21;101685.91;;;13.24;44.74
19508;BME280;40157;42.566;27.526;2023-03-13T10:49:23;101750.78;;;13.60;43.88
19508;BME280;40157;42.566;27.526;2023-03-13T10:51:30;101711.06;;;13.50;45.92
19508;BME280;40157;42.566;27.526;2023-03-13T10:53:36;101676.69;;;13.43;45.39